createdAt,value
2019-03-16T00:00:09.964Z,6.40
2019-03-16T00:02:38.755Z,5.67
2019-03-16T00:05:07.597Z,5.60
2019-03-16T00:07:37.131Z,3.23
2019-03-16T00:10:07.147Z,3.90
2019-03-16T00:12:35.994Z,5.10
2019-03-16T00:15:06.726Z,4.00
2019-03-16T00:17:35.479Z,5.37
2019-03-16T00:20:09.422Z,5.73
2019-03-16T00:22:38.300Z,1.47
2019-03-16T00:25:09.035Z,4.90
2019-03-16T00:27:37.852Z,6.80
2019-03-16T00:30:09.699Z,5.17
2019-03-16T00:32:38.448Z,3.70
2019-03-16T00:35:07.188Z,4.87
2019-03-16T00:37:36.035Z,9.57
2019-03-16T00:40:09.676Z,9.00
2019-03-16T00:42:38.410Z,10.63
2019-03-16T00:45:10.012Z,6.10
2019-03-16T00:47:38.772Z,6.90
2019-03-16T00:50:14.229Z,6.77
2019-03-16T00:52:43.998Z,4.07
2019-03-16T00:55:12.723Z,6.63
2019-03-16T00:57:41.485Z,8.40
2019-03-16T01:00:15.544Z,5.23
2019-03-16T01:02:44.363Z,4.73
2019-03-16T01:05:13.394Z,17.47
2019-03-16T01:07:42.260Z,2.80
2019-03-16T01:10:12.202Z,8.83
2019-03-16T01:12:41.019Z,9.90
2019-03-16T01:15:12.425Z,10.70
2019-03-16T01:17:41.219Z,8.57
2019-03-16T01:20:11.949Z,3.77
2019-03-16T01:22:41.059Z,6.63
2019-03-16T01:25:11.027Z,5.53
2019-03-16T01:27:39.763Z,10.07
2019-03-16T01:30:17.754Z,5.43
2019-03-16T01:32:46.563Z,8.90
2019-03-16T01:35:15.380Z,2.90
2019-03-16T01:37:44.228Z,4.93
2019-03-16T01:40:12.995Z,7.00
2019-03-16T01:42:41.740Z,7.00
2019-03-16T01:45:11.437Z,4.37
2019-03-16T01:47:40.272Z,5.63
2019-03-16T01:50:10.514Z,5.53
2019-03-16T01:52:39.299Z,4.37
2019-03-16T01:55:09.411Z,6.60
2019-03-16T01:57:38.156Z,4.43
2019-03-16T02:00:11.990Z,6.63
2019-03-16T02:02:53.750Z,17.03
2019-03-16T02:05:11.195Z,11.97
2019-03-16T02:07:40.060Z,4.17
2019-03-16T02:10:09.794Z,6.97
2019-03-16T02:12:39.422Z,9.97
2019-03-16T02:15:08.931Z,9.30
2019-03-16T02:17:37.683Z,9.43
2019-03-16T02:20:08.445Z,11.70
2019-03-16T02:22:37.331Z,10.50
2019-03-16T02:25:07.162Z,5.57
2019-03-16T02:27:35.971Z,5.73
2019-03-16T02:30:07.651Z,4.07
2019-03-16T02:32:36.397Z,7.77
2019-03-16T02:35:07.131Z,8.77
2019-03-16T02:37:35.972Z,5.90
2019-03-16T02:40:06.907Z,5.97
2019-03-16T02:42:35.675Z,7.77
2019-03-16T02:45:06.637Z,6.27
2019-03-16T02:47:35.459Z,4.27
2019-03-16T02:50:06.387Z,4.57
2019-03-16T02:52:35.173Z,9.67
2019-03-16T02:55:04.812Z,6.10
2019-03-16T02:57:33.565Z,8.17
2019-03-16T03:00:02.423Z,5.93
2019-03-16T03:02:31.181Z,5.67
2019-03-16T03:04:59.987Z,6.00
2019-03-16T03:07:28.813Z,6.23
2019-03-16T03:09:57.617Z,13.50
2019-03-16T03:12:26.358Z,11.17
2019-03-16T03:14:56.019Z,6.77
2019-03-16T03:17:24.911Z,6.37
2019-03-16T03:19:53.778Z,8.43
2019-03-16T03:22:22.721Z,4.80
2019-03-16T03:24:51.561Z,16.20
2019-03-16T03:27:20.309Z,9.73
2019-03-16T03:29:49.186Z,7.97
2019-03-16T03:32:17.948Z,4.83
2019-03-16T03:34:46.668Z,6.67
2019-03-16T03:37:15.465Z,4.00
2019-03-16T03:39:44.211Z,8.97
2019-03-16T03:42:13.021Z,13.53
2019-03-16T03:44:41.892Z,9.93
2019-03-16T03:47:10.629Z,5.57
2019-03-16T03:49:39.445Z,8.10
2019-03-16T03:52:08.324Z,7.17
2019-03-16T03:54:37.142Z,7.80
2019-03-16T03:57:05.891Z,11.00
2019-03-16T03:59:34.692Z,9.67
2019-03-16T04:02:03.614Z,5.93
2019-03-16T04:04:32.372Z,13.63
2019-03-16T04:07:02.625Z,8.27
2019-03-16T04:09:31.452Z,6.63
2019-03-16T04:12:00.285Z,9.20
2019-03-16T04:14:29.099Z,4.47
2019-03-16T04:16:58.667Z,9.73
2019-03-16T04:19:27.492Z,4.73
2019-03-16T04:21:56.314Z,5.13
2019-03-16T04:24:25.108Z,8.20
2019-03-16T04:26:53.843Z,4.53
2019-03-16T04:29:22.676Z,6.13
2019-03-16T04:31:51.507Z,10.83
2019-03-16T04:34:29.294Z,8.50
2019-03-16T04:36:50.769Z,8.03
2019-03-16T04:39:19.596Z,6.80
2019-03-16T04:41:48.356Z,8.50
2019-03-16T04:44:17.191Z,5.80
2019-03-16T04:46:45.954Z,10.17
2019-03-16T04:49:14.724Z,8.00
2019-03-16T04:51:43.531Z,8.87
2019-03-16T04:54:12.291Z,8.53
2019-03-16T04:56:41.085Z,8.03
2019-03-16T04:59:09.818Z,10.83
2019-03-16T05:01:38.560Z,6.03
2019-03-16T05:04:07.495Z,14.37
2019-03-16T05:06:36.316Z,13.40
2019-03-16T05:09:06.761Z,6.23
2019-03-16T05:11:35.604Z,10.67
2019-03-16T05:14:04.412Z,11.47
2019-03-16T05:16:33.139Z,8.73
2019-03-16T05:19:01.898Z,10.97
2019-03-16T05:21:30.715Z,4.27
2019-03-16T05:24:02.638Z,4.03
2019-03-16T05:26:29.939Z,11.37
2019-03-16T05:28:58.834Z,9.73
2019-03-16T05:31:27.639Z,9.17
2019-03-16T05:33:56.395Z,6.03
2019-03-16T05:36:25.286Z,6.50
2019-03-16T05:38:54.049Z,7.60
2019-03-16T05:41:22.819Z,8.53
2019-03-16T05:43:51.692Z,10.17
2019-03-16T05:46:20.455Z,8.43
2019-03-16T05:48:49.209Z,6.43
2019-03-16T05:51:18.095Z,8.60
2019-03-16T05:53:46.876Z,7.40
2019-03-16T05:56:15.691Z,13.03
2019-03-16T05:58:44.630Z,4.90
2019-03-16T06:01:13.499Z,6.70
2019-03-16T06:03:42.340Z,6.17
2019-03-16T06:06:11.224Z,7.20
2019-03-16T06:08:39.995Z,12.77
2019-03-16T06:11:08.819Z,11.63
2019-03-16T06:13:37.700Z,6.07
2019-03-16T06:16:06.450Z,6.80
2019-03-16T06:18:35.214Z,6.07
2019-03-16T06:21:04.044Z,5.23
2019-03-16T06:23:32.931Z,12.03
2019-03-16T06:26:01.774Z,7.67
2019-03-16T06:28:30.756Z,8.30
2019-03-16T06:30:59.555Z,8.07
2019-03-16T06:33:28.323Z,9.13
2019-03-16T06:35:57.284Z,3.97
2019-03-16T06:38:26.163Z,11.57
2019-03-16T06:40:54.892Z,4.73
2019-03-16T06:43:23.675Z,7.43
2019-03-16T06:45:52.530Z,8.13
2019-03-16T06:48:21.348Z,7.67
2019-03-16T06:50:50.228Z,7.00
2019-03-16T06:53:19.673Z,12.23
2019-03-16T06:55:48.738Z,6.47
2019-03-16T06:58:17.635Z,5.87
2019-03-16T07:00:46.455Z,3.17
2019-03-16T07:03:15.180Z,8.73
2019-03-16T07:05:44.203Z,3.63
2019-03-16T07:08:12.942Z,7.53
2019-03-16T07:10:41.844Z,6.77
2019-03-16T07:13:11.219Z,9.57
2019-03-16T07:15:40.049Z,12.43
2019-03-16T07:18:08.883Z,23.67
2019-03-16T07:20:37.777Z,7.40
2019-03-16T07:23:06.613Z,9.33
2019-03-16T07:25:35.405Z,8.93
2019-03-16T07:28:04.259Z,6.87
2019-03-16T07:30:33.006Z,7.50
2019-03-16T07:33:01.756Z,4.93
2019-03-16T07:35:30.627Z,6.83
2019-03-16T07:37:59.374Z,5.30
2019-03-16T07:40:28.187Z,6.77
2019-03-16T07:42:57.069Z,4.60
2019-03-16T07:45:25.827Z,8.37
2019-03-16T07:47:54.692Z,7.70
2019-03-16T07:50:23.507Z,4.37
2019-03-16T07:52:52.370Z,8.57
2019-03-16T07:55:21.158Z,7.73
2019-03-16T07:57:50.117Z,12.37
2019-03-16T08:00:18.951Z,10.80
2019-03-16T08:02:47.802Z,11.97
2019-03-16T08:05:19.256Z,5.70
2019-03-16T08:07:47.153Z,9.47
2019-03-16T08:10:15.948Z,18.63
2019-03-16T08:12:44.821Z,8.70
2019-03-16T08:15:13.663Z,11.70
2019-03-16T08:17:42.431Z,10.70
2019-03-16T08:20:11.707Z,8.23
2019-03-16T08:22:40.450Z,6.23
2019-03-16T08:25:09.659Z,7.00
2019-03-16T08:27:38.484Z,10.00
2019-03-16T08:30:09.917Z,3.37
2019-03-16T08:32:38.652Z,6.20
2019-03-16T08:35:08.747Z,12.03
2019-03-16T08:37:37.565Z,3.50
2019-03-16T08:40:08.501Z,3.90
2019-03-16T08:42:37.378Z,5.90
2019-03-16T08:45:10.974Z,9.63
2019-03-16T08:47:39.820Z,16.73
2019-03-16T08:50:10.478Z,9.33
2019-03-16T08:52:39.316Z,10.80
2019-03-16T08:55:09.083Z,7.50
2019-03-16T08:57:37.981Z,4.97
2019-03-16T09:00:14.178Z,6.10
2019-03-16T09:02:43.067Z,14.47
2019-03-16T09:05:11.886Z,7.63
2019-03-16T09:07:40.725Z,11.53
2019-03-16T09:10:12.387Z,7.67
2019-03-16T09:12:54.020Z,6.30
2019-03-16T09:15:16.003Z,2.97
2019-03-16T09:17:44.893Z,10.60
2019-03-16T09:20:13.835Z,9.33
2019-03-16T09:22:42.659Z,10.27
2019-03-16T09:25:11.634Z,8.47
2019-03-16T09:27:41.340Z,4.93
2019-03-16T09:30:16.018Z,6.93
2019-03-16T09:32:44.838Z,7.47
2019-03-16T09:35:13.699Z,11.67
2019-03-16T09:37:42.548Z,8.53
2019-03-16T09:40:12.269Z,5.50
2019-03-16T09:42:41.021Z,5.30
2019-03-16T09:45:11.429Z,6.23
2019-03-16T09:47:40.262Z,6.07
2019-03-16T09:50:10.019Z,10.67
2019-03-16T09:52:39.098Z,7.40
2019-03-16T09:55:11.897Z,7.37
2019-03-16T09:57:40.681Z,9.10
2019-03-16T10:00:14.809Z,4.13
2019-03-16T10:02:43.612Z,4.80
2019-03-16T10:05:12.462Z,6.93
2019-03-16T10:07:41.321Z,3.50
2019-03-16T10:10:12.142Z,4.00
2019-03-16T10:12:40.881Z,8.70
2019-03-16T10:15:11.387Z,9.97
2019-03-16T10:17:40.307Z,8.40
2019-03-16T10:20:14.139Z,4.23
2019-03-16T10:22:43.010Z,5.60
2019-03-16T10:25:11.844Z,10.93
2019-03-16T10:27:40.757Z,8.80
2019-03-16T10:30:11.851Z,4.93
2019-03-16T10:32:40.684Z,7.13
2019-03-16T10:35:09.462Z,6.00
2019-03-16T10:37:38.357Z,7.10
2019-03-16T10:40:11.876Z,4.83
2019-03-16T10:42:40.675Z,4.50
2019-03-16T10:45:11.204Z,8.20
2019-03-16T10:47:40.028Z,10.97
2019-03-16T10:50:13.075Z,7.87
2019-03-16T10:52:41.889Z,4.43
2019-03-16T10:55:10.627Z,4.17
2019-03-16T10:57:39.387Z,6.33
2019-03-16T11:00:16.517Z,6.97
2019-03-16T11:02:45.882Z,7.67
2019-03-16T11:05:14.715Z,6.70
2019-03-16T11:07:43.572Z,12.10
2019-03-16T11:10:13.612Z,8.57
2019-03-16T11:12:42.445Z,7.70
2019-03-16T11:15:11.772Z,9.13
2019-03-16T11:17:40.596Z,6.70
2019-03-16T11:20:11.069Z,5.23
2019-03-16T11:22:39.930Z,10.33
2019-03-16T11:25:09.093Z,4.43
2019-03-16T11:27:37.995Z,6.30
2019-03-16T11:30:16.892Z,4.27
2019-03-16T11:32:45.676Z,8.67
2019-03-16T11:35:14.444Z,8.37
2019-03-16T11:37:43.596Z,10.57
2019-03-16T11:40:17.891Z,10.00
2019-03-16T11:42:46.711Z,11.47
2019-03-16T11:45:17.173Z,2.70
2019-03-16T11:47:46.059Z,5.63
2019-03-16T11:50:14.908Z,6.00
2019-03-16T11:52:45.739Z,3.23
2019-03-16T11:55:14.572Z,3.30
2019-03-16T11:57:43.342Z,0.73
2019-03-16T12:00:15.351Z,2.60
2019-03-16T12:02:44.068Z,3.33
2019-03-16T12:05:13.476Z,5.33
2019-03-16T12:07:42.355Z,4.67
2019-03-16T12:10:13.236Z,6.87
2019-03-16T12:12:42.060Z,2.67
2019-03-16T12:15:12.219Z,3.73
2019-03-16T12:17:41.039Z,2.47
2019-03-16T12:20:16.693Z,1.53
2019-03-16T12:22:45.213Z,4.43
2019-03-16T12:25:13.956Z,2.03
2019-03-16T12:27:42.723Z,2.53
2019-03-16T12:30:13.322Z,3.90
2019-03-16T12:32:42.080Z,3.40
2019-03-16T12:35:10.956Z,1.27
2019-03-16T12:37:39.852Z,3.17
2019-03-16T12:40:11.451Z,4.27
2019-03-16T12:42:40.315Z,2.50
2019-03-16T12:45:14.813Z,1.30
2019-03-16T12:47:44.035Z,2.73
2019-03-16T12:50:12.954Z,3.80
2019-03-16T12:52:42.101Z,2.43
2019-03-16T12:55:15.170Z,1.43
2019-03-16T12:57:44.428Z,2.17
2019-03-16T13:00:15.790Z,6.23
2019-03-16T13:02:44.922Z,3.93
2019-03-16T13:05:14.860Z,1.60
2019-03-16T13:07:43.909Z,2.47
2019-03-16T13:10:19.076Z,1.53
2019-03-16T13:12:48.331Z,1.10
2019-03-16T13:15:17.869Z,2.23
2019-03-16T13:17:49.748Z,1.40
2019-03-16T13:20:18.718Z,1.67
2019-03-16T13:22:47.497Z,3.13
2019-03-16T13:25:16.467Z,2.37
2019-03-16T13:27:45.372Z,2.63
2019-03-16T13:30:23.272Z,5.57
2019-03-16T13:32:52.859Z,1.47
2019-03-16T13:35:21.733Z,4.83
2019-03-16T13:37:50.603Z,5.70
2019-03-16T13:40:19.804Z,1.70
2019-03-16T13:42:48.595Z,2.57
2019-03-16T13:45:17.436Z,4.57
2019-03-16T13:47:46.341Z,1.80
2019-03-16T13:50:21.533Z,2.53
2019-03-16T13:52:50.779Z,4.27
2019-03-16T13:55:19.569Z,1.57
2019-03-16T13:57:48.340Z,2.37
2019-03-16T14:00:21.099Z,1.93
2019-03-16T14:02:49.914Z,4.77
2019-03-16T14:05:18.766Z,1.40
2019-03-16T14:07:47.581Z,3.37
2019-03-16T14:10:20.534Z,3.30
2019-03-16T14:12:49.308Z,1.30
2019-03-16T14:15:27.068Z,3.90
2019-03-16T14:17:58.103Z,0.83
2019-03-16T14:20:26.395Z,1.67
2019-03-16T14:22:55.704Z,1.10
2019-03-16T14:25:24.541Z,2.33
2019-03-16T14:27:53.316Z,0.80
2019-03-16T14:30:39.244Z,0.93
2019-03-16T14:32:52.900Z,0.97
2019-03-16T14:35:21.735Z,1.13
2019-03-16T14:37:50.661Z,2.80
2019-03-16T14:40:20.568Z,1.00
2019-03-16T14:42:49.392Z,0.73
2019-03-16T14:45:18.628Z,5.70
2019-03-16T14:47:47.492Z,0.70
2019-03-16T14:50:21.691Z,0.80
2019-03-16T14:52:50.588Z,1.00
2019-03-16T14:55:19.457Z,1.03
2019-03-16T14:57:48.268Z,1.23
2019-03-16T15:00:18.172Z,1.03
2019-03-16T15:02:47.092Z,0.90
2019-03-16T15:05:16.127Z,0.73
2019-03-16T15:07:45.045Z,3.33
2019-03-16T15:10:16.074Z,1.00
2019-03-16T15:12:44.965Z,0.90
2019-03-16T15:15:20.735Z,1.07
2019-03-16T15:17:49.710Z,1.00
2019-03-16T15:20:18.530Z,1.20
2019-03-16T15:22:47.387Z,4.13
2019-03-16T15:25:16.145Z,1.13
2019-03-16T15:27:44.996Z,1.00
2019-03-16T15:30:16.444Z,1.20
2019-03-16T15:32:45.306Z,0.97
2019-03-16T15:35:14.353Z,2.47
2019-03-16T15:37:43.190Z,1.20
2019-03-16T15:40:14.449Z,2.53
2019-03-16T15:42:43.324Z,0.97
2019-03-16T15:45:31.704Z,1.20
2019-03-16T15:48:00.507Z,1.10
2019-03-16T15:50:29.341Z,2.17
2019-03-16T15:52:58.278Z,1.43
2019-03-16T15:55:27.112Z,2.07
2019-03-16T15:58:07.479Z,1.50
2019-03-16T16:00:26.548Z,1.10
2019-03-16T16:02:55.364Z,1.90
2019-03-16T16:05:24.228Z,2.23
2019-03-16T16:07:53.171Z,1.93
2019-03-16T16:10:22.031Z,1.77
2019-03-16T16:12:50.836Z,3.10
2019-03-16T16:15:19.884Z,2.27
2019-03-16T16:17:48.683Z,1.20
2019-03-16T16:20:18.604Z,2.60
2019-03-16T16:22:47.492Z,1.40
2019-03-16T16:25:16.373Z,1.60
2019-03-16T16:27:45.216Z,1.40
2019-03-16T16:30:18.472Z,1.83
2019-03-16T16:32:47.350Z,5.43
2019-03-16T16:35:16.709Z,1.50
2019-03-16T16:37:45.708Z,1.47
2019-03-16T16:40:15.835Z,1.50
2019-03-16T16:42:44.700Z,1.40
2019-03-16T16:45:14.419Z,4.33
2019-03-16T16:47:43.210Z,2.00
2019-03-16T16:50:14.444Z,3.63
2019-03-16T16:52:43.371Z,2.17
2019-03-16T16:55:12.222Z,2.60
2019-03-16T16:57:41.116Z,3.90
2019-03-16T17:00:15.540Z,2.27
2019-03-16T17:02:44.340Z,2.97
2019-03-16T17:05:13.235Z,2.80
2019-03-16T17:07:42.117Z,6.43
2019-03-16T17:10:13.428Z,5.07
2019-03-16T17:12:42.472Z,1.77
2019-03-16T17:15:14.196Z,2.07
2019-03-16T17:17:43.088Z,2.93
2019-03-16T17:20:14.075Z,2.00
2019-03-16T17:22:42.996Z,2.40
2019-03-16T17:25:12.978Z,2.90
2019-03-16T17:27:41.820Z,3.00
2019-03-16T17:30:16.100Z,2.37
2019-03-16T17:32:44.948Z,2.80
2019-03-16T17:35:13.786Z,3.10
2019-03-16T17:37:42.740Z,3.07
2019-03-16T17:40:13.252Z,3.10
2019-03-16T17:42:42.140Z,2.83
2019-03-16T17:45:12.751Z,3.50
2019-03-16T17:47:41.909Z,2.83
2019-03-16T17:50:15.872Z,4.40
2019-03-16T17:52:44.687Z,3.17
2019-03-16T17:55:17.837Z,3.97
2019-03-16T17:57:46.689Z,2.83
2019-03-16T18:00:19.294Z,3.67
2019-03-16T18:02:52.488Z,4.00
2019-03-16T18:05:19.156Z,3.67
2019-03-16T18:07:48.260Z,4.60
2019-03-16T18:10:17.262Z,6.33
2019-03-16T18:12:46.078Z,4.17
2019-03-16T18:15:17.260Z,2.97
2019-03-16T18:17:46.100Z,3.50
2019-03-16T18:20:18.676Z,3.90
2019-03-16T18:22:50.611Z,4.47
2019-03-16T18:25:19.475Z,4.30
2019-03-16T18:27:49.292Z,4.57
2019-03-16T18:30:22.909Z,5.93
2019-03-16T18:32:51.746Z,4.40
2019-03-16T18:35:20.725Z,6.10
2019-03-16T18:37:49.547Z,8.53
2019-03-16T18:40:18.396Z,6.57
2019-03-16T18:42:47.217Z,5.30
2019-03-16T18:45:27.733Z,6.17
2019-03-16T18:47:56.572Z,4.43
2019-03-16T18:50:25.405Z,6.60
2019-03-16T18:52:54.283Z,6.30
2019-03-16T18:55:23.076Z,5.90
2019-03-16T18:57:51.917Z,5.60
2019-03-16T19:00:20.846Z,6.20
2019-03-16T19:02:49.674Z,6.57
2019-03-16T19:05:22.598Z,6.47
2019-03-16T19:07:51.563Z,6.07
2019-03-16T19:10:21.956Z,6.20
2019-03-16T19:12:50.804Z,7.43
2019-03-16T19:15:21.700Z,7.23
2019-03-16T19:17:58.516Z,6.90
2019-03-16T19:20:21.035Z,7.03
2019-03-16T19:22:49.972Z,6.20
2019-03-16T19:25:22.346Z,7.53
2019-03-16T19:27:51.230Z,8.00
2019-03-16T19:30:20.157Z,7.53
2019-03-16T19:32:48.972Z,8.67
2019-03-16T19:35:17.892Z,7.50
2019-03-16T19:37:46.771Z,8.70
2019-03-16T19:40:17.772Z,9.63
2019-03-16T19:42:47.284Z,8.67
2019-03-16T19:45:16.403Z,9.53
2019-03-16T19:47:45.237Z,9.17
2019-03-16T19:50:17.931Z,9.43
2019-03-16T19:52:46.771Z,7.83
2019-03-16T19:55:15.918Z,9.67
2019-03-16T19:57:44.742Z,11.20
2019-03-16T20:00:15.477Z,8.63
2019-03-16T20:02:50.306Z,9.63
2019-03-16T20:05:14.893Z,8.97
2019-03-16T20:07:43.698Z,15.20
2019-03-16T20:10:16.683Z,36.03
2019-03-16T20:12:45.650Z,35.67
2019-03-16T20:15:15.467Z,15.67
2019-03-16T20:17:44.390Z,8.67
2019-03-16T20:20:15.237Z,6.33
2019-03-16T20:22:46.030Z,13.73
2019-03-16T20:25:14.621Z,8.53
2019-03-16T20:27:43.483Z,7.40
2019-03-16T20:30:25.942Z,6.93
2019-03-16T20:32:50.311Z,7.03
2019-03-16T20:35:18.198Z,7.03
2019-03-16T20:37:47.076Z,8.30
2019-03-16T20:40:16.560Z,6.00
2019-03-16T20:42:45.314Z,6.60
2019-03-16T20:45:14.417Z,6.80
2019-03-16T20:47:43.268Z,6.23
2019-03-16T20:50:18.923Z,4.67
2019-03-16T20:52:47.818Z,5.83
2019-03-16T20:55:16.655Z,5.83
2019-03-16T20:57:45.483Z,4.47
2019-03-16T21:00:20.271Z,6.83
2019-03-16T21:02:49.089Z,4.40
2019-03-16T21:05:17.993Z,4.83
2019-03-16T21:07:47.124Z,4.10
2019-03-16T21:10:16.011Z,3.87
2019-03-16T21:12:44.964Z,5.53
2019-03-16T21:15:18.190Z,3.50
2019-03-16T21:17:47.174Z,3.43
2019-03-16T21:20:20.324Z,2.73
2019-03-16T21:22:49.202Z,4.27
2019-03-16T21:25:18.149Z,4.67
2019-03-16T21:27:47.412Z,4.30
2019-03-16T21:30:22.915Z,3.10
2019-03-16T21:32:51.889Z,5.43
2019-03-16T21:35:20.715Z,3.37
2019-03-16T21:37:49.576Z,4.80
2019-03-16T21:40:19.460Z,2.87
2019-03-16T21:42:48.322Z,3.37
2019-03-16T21:45:17.214Z,3.00
2019-03-16T21:47:46.132Z,4.23
2019-03-16T21:50:15.971Z,3.00
2019-03-16T21:52:45.162Z,3.50
2019-03-16T21:55:14.994Z,3.50
2019-03-16T21:57:43.884Z,5.47
2019-03-16T22:00:19.220Z,3.93
2019-03-16T22:02:48.201Z,7.37
2019-03-16T22:05:17.012Z,5.00
2019-03-16T22:07:45.895Z,3.40
2019-03-16T22:10:15.580Z,3.40
2019-03-16T22:12:44.445Z,3.53
2019-03-16T22:15:14.332Z,3.70
2019-03-16T22:17:43.174Z,3.23
2019-03-16T22:20:19.674Z,3.57
2019-03-16T22:22:48.522Z,4.33
2019-03-16T22:25:17.358Z,4.13
2019-03-16T22:27:46.219Z,2.53
2019-03-16T22:30:18.226Z,6.67
2019-03-16T22:32:46.980Z,3.77
2019-03-16T22:35:15.851Z,2.47
2019-03-16T22:37:44.661Z,2.73
2019-03-16T22:40:14.483Z,2.50
2019-03-16T22:42:43.365Z,3.57
2019-03-16T22:45:13.982Z,3.73
2019-03-16T22:47:42.672Z,3.03
2019-03-16T22:50:17.014Z,3.90
2019-03-16T22:52:45.779Z,2.13
2019-03-16T22:55:16.264Z,4.97
2019-03-16T22:57:45.381Z,3.33
2019-03-16T23:00:21.660Z,3.13
2019-03-16T23:02:50.556Z,4.37
2019-03-16T23:05:19.379Z,4.20
2019-03-16T23:07:48.190Z,3.60
2019-03-16T23:10:17.050Z,3.90
2019-03-16T23:12:45.820Z,3.63
2019-03-16T23:15:14.555Z,2.40
2019-03-16T23:17:43.381Z,4.07
2019-03-16T23:20:12.530Z,4.43
2019-03-16T23:22:41.252Z,3.33
2019-03-16T23:25:10.921Z,2.17
2019-03-16T23:27:39.748Z,4.73
2019-03-16T23:30:09.874Z,5.27
2019-03-16T23:32:38.771Z,3.20
2019-03-16T23:35:09.012Z,5.13
2019-03-16T23:37:37.843Z,2.37
2019-03-16T23:40:13.377Z,4.73
2019-03-16T23:42:42.117Z,3.37
2019-03-16T23:45:12.572Z,2.60
2019-03-16T23:47:41.349Z,2.63
2019-03-16T23:50:11.573Z,2.33
2019-03-16T23:52:40.396Z,5.07
2019-03-16T23:55:09.899Z,3.00
2019-03-16T23:57:38.724Z,8.43
